sensor_id;sensor_type;location;lat;lon;timestamp;pressure;altitude;pressure_sealevel;temperature;humidity
34742;BME280;20968;42.696;23.360;2022-12-18T00:01:22;95983.38;;;7.95;80.75
34742;BME280;20968;42.696;23.360;2022-12-18T00:03:48;95992.81;;;7.94;81.36
34742;BME280;20968;42.696;23.360;2022-12-18T00:06:14;95995.13;;;7.83;80.71
34742;BME280;20968;42.696;23.360;2022-12-18T00:08:40;95991.84;;;7.76;81.80
34742;BME280;20968;42.696;23.360;2022-12-18T00:11:05;95995.25;;;7.68;81.57
34742;BME280;20968;42.696;23.360;2022-12-18T00:13:31;95997.13;;;7.71;81.52
34742;BME280;20968;42.696;23.360;2022-12-18T00:16:00;95990.63;;;7.77;81.36
34742;BME280;20968;42.696;23.360;2022-12-18T00:18:26;95999.84;;;7.83;80.74
34742;BME280;20968;42.696;23.360;2022-12-18T00:20:51;95999.94;;;7.92;80.83
34742;BME280;20968;42.696;23.360;2022-12-18T00:23:16;96004.22;;;7.93;80.05
34742;BME280;20968;42.696;23.360;2022-12-18T00:25:41;96001.94;;;7.79;79.59
34742;BME280;20968;42.696;23.360;2022-12-18T00:28:07;96014.44;;;7.55;81.13
34742;BME280;20968;42.696;23.360;2022-12-18T00:30:32;96014.66;;;7.48;80.75
34742;BME280;20968;42.696;23.360;2022-12-18T00:32:57;96021.44;;;7.44;80.82
34742;BME280;20968;42.696;23.360;2022-12-18T00:35:23;96021.53;;;7.40;81.27
34742;BME280;20968;42.696;23.360;2022-12-18T00:37:48;96027.09;;;7.24;81.09
34742;BME280;20968;42.696;23.360;2022-12-18T00:40:13;96022.81;;;7.23;80.84
34742;BME280;20968;42.696;23.360;2022-12-18T00:42:38;96032.47;;;7.28;81.63
34742;BME280;20968;42.696;23.360;2022-12-18T00:45:26;96033.53;;;7.18;82.29
34742;BME280;20968;42.696;23.360;2022-12-18T00:47:51;96033.97;;;7.16;80.78
34742;BME280;20968;42.696;23.360;2022-12-18T00:50:17;96033.97;;;7.16;81.91
34742;BME280;20968;42.696;23.360;2022-12-18T00:52:42;96035.53;;;7.17;81.99
34742;BME280;20968;42.696;23.360;2022-12-18T00:55:07;96032.53;;;7.12;80.79
34742;BME280;20968;42.696;23.360;2022-12-18T00:57:33;96036.63;;;7.20;80.87
34742;BME280;20968;42.696;23.360;2022-12-18T00:59:58;96035.88;;;7.19;80.31
34742;BME280;20968;42.696;23.360;2022-12-18T01:02:23;96041.22;;;7.10;80.52
34742;BME280;20968;42.696;23.360;2022-12-18T01:04:49;96047.97;;;7.06;80.93
34742;BME280;20968;42.696;23.360;2022-12-18T01:07:14;96053.56;;;7.02;80.76
34742;BME280;20968;42.696;23.360;2022-12-18T01:09:39;96048.66;;;7.10;81.75
34742;BME280;20968;42.696;23.360;2022-12-18T01:12:05;96057.84;;;7.03;81.24
34742;BME280;20968;42.696;23.360;2022-12-18T01:14:30;96062.97;;;7.01;81.30
34742;BME280;20968;42.696;23.360;2022-12-18T01:16:55;96070.72;;;6.91;80.77
34742;BME280;20968;42.696;23.360;2022-12-18T01:19:21;96063.44;;;6.84;81.83
34742;BME280;20968;42.696;23.360;2022-12-18T01:21:46;96069.84;;;6.93;81.13
34742;BME280;20968;42.696;23.360;2022-12-18T01:24:11;96072.66;;;6.90;80.63
34742;BME280;20968;42.696;23.360;2022-12-18T01:26:37;96068.19;;;6.96;80.72
34742;BME280;20968;42.696;23.360;2022-12-18T01:29:02;96071.28;;;6.98;80.67
34742;BME280;20968;42.696;23.360;2022-12-18T01:31:28;96066.09;;;6.88;81.11
34742;BME280;20968;42.696;23.360;2022-12-18T01:33:55;96069.50;;;6.92;80.26
34742;BME280;20968;42.696;23.360;2022-12-18T01:36:24;96069.38;;;6.83;80.79
34742;BME280;20968;42.696;23.360;2022-12-18T01:38:50;96081.59;;;6.78;80.90
34742;BME280;20968;42.696;23.360;2022-12-18T01:41:16;96085.81;;;6.67;80.77
34742;BME280;20968;42.696;23.360;2022-12-18T01:43:52;96086.56;;;6.67;81.78
34742;BME280;20968;42.696;23.360;2022-12-18T01:46:19;96089.41;;;6.64;81.77
34742;BME280;20968;42.696;23.360;2022-12-18T01:48:46;96084.13;;;6.57;81.07
34742;BME280;20968;42.696;23.360;2022-12-18T01:51:12;96080.53;;;6.60;81.75
34742;BME280;20968;42.696;23.360;2022-12-18T01:53:38;96088.56;;;6.67;80.96
34742;BME280;20968;42.696;23.360;2022-12-18T01:56:04;96091.22;;;6.54;81.20
34742;BME280;20968;42.696;23.360;2022-12-18T01:58:38;96092.50;;;6.50;80.93
34742;BME280;20968;42.696;23.360;2022-12-18T02:01:04;96085.41;;;6.52;80.88
34742;BME280;20968;42.696;23.360;2022-12-18T02:03:29;96100.97;;;6.39;81.09
34742;BME280;20968;42.696;23.360;2022-12-18T02:06:01;96096.00;;;6.50;81.02
34742;BME280;20968;42.696;23.360;2022-12-18T02:08:40;96099.50;;;6.51;80.96
34742;BME280;20968;42.696;23.360;2022-12-18T02:11:11;96101.25;;;6.45;80.83
34742;BME280;20968;42.696;23.360;2022-12-18T02:18:44;96116.94;;;6.41;79.97
34742;BME280;20968;42.696;23.360;2022-12-18T02:29:08;96124.22;;;6.31;80.04
34742;BME280;20968;42.696;23.360;2022-12-18T02:31:36;96127.13;;;6.24;80.68
34742;BME280;20968;42.696;23.360;2022-12-18T02:34:04;96118.56;;;6.22;80.48
34742;BME280;20968;42.696;23.360;2022-12-18T02:36:31;96129.25;;;6.17;80.83
34742;BME280;20968;42.696;23.360;2022-12-18T02:38:58;96121.81;;;6.18;81.47
34742;BME280;20968;42.696;23.360;2022-12-18T02:41:24;96122.22;;;6.16;81.12
34742;BME280;20968;42.696;23.360;2022-12-18T02:43:53;96124.97;;;6.16;80.84
34742;BME280;20968;42.696;23.360;2022-12-18T02:46:23;96129.50;;;6.07;80.81
34742;BME280;20968;42.696;23.360;2022-12-18T02:48:50;96136.94;;;6.06;81.54
34742;BME280;20968;42.696;23.360;2022-12-18T02:51:50;96142.16;;;6.17;81.12
34742;BME280;20968;42.696;23.360;2022-12-18T02:56:46;96136.84;;;6.10;80.73
34742;BME280;20968;42.696;23.360;2022-12-18T03:02:06;96129.75;;;5.96;81.40
34742;BME280;20968;42.696;23.360;2022-12-18T03:04:47;96134.44;;;5.96;81.53
34742;BME280;20968;42.696;23.360;2022-12-18T03:07:23;96140.31;;;5.94;81.39
34742;BME280;20968;42.696;23.360;2022-12-18T03:09:50;96149.38;;;5.91;81.11
34742;BME280;20968;42.696;23.360;2022-12-18T03:12:21;96152.03;;;5.95;81.36
34742;BME280;20968;42.696;23.360;2022-12-18T03:14:50;96157.59;;;5.91;80.88
34742;BME280;20968;42.696;23.360;2022-12-18T03:17:17;96157.50;;;5.95;80.88
34742;BME280;20968;42.696;23.360;2022-12-18T03:19:45;96151.16;;;5.98;81.29
34742;BME280;20968;42.696;23.360;2022-12-18T03:22:11;96162.44;;;6.00;80.23
34742;BME280;20968;42.696;23.360;2022-12-18T03:24:37;96173.50;;;6.12;80.23
34742;BME280;20968;42.696;23.360;2022-12-18T03:27:05;96168.53;;;6.07;79.45
34742;BME280;20968;42.696;23.360;2022-12-18T03:29:36;96160.34;;;6.07;80.03
34742;BME280;20968;42.696;23.360;2022-12-18T03:32:08;96171.78;;;6.18;79.29
34742;BME280;20968;42.696;23.360;2022-12-18T03:34:35;96177.78;;;6.13;79.33
34742;BME280;20968;42.696;23.360;2022-12-18T03:37:03;96183.25;;;6.13;78.84
34742;BME280;20968;42.696;23.360;2022-12-18T03:39:28;96177.50;;;6.08;78.89
34742;BME280;20968;42.696;23.360;2022-12-18T03:41:59;96178.53;;;6.14;79.12
34742;BME280;20968;42.696;23.360;2022-12-18T03:52:33;96197.84;;;5.87;78.14
34742;BME280;20968;42.696;23.360;2022-12-18T03:55:01;96200.13;;;5.92;78.22
34742;BME280;20968;42.696;23.360;2022-12-18T03:57:28;96197.44;;;5.89;77.79
34742;BME280;20968;42.696;23.360;2022-12-18T03:59:56;96198.78;;;5.81;78.01
34742;BME280;20968;42.696;23.360;2022-12-18T04:02:22;96196.66;;;5.88;78.02
34742;BME280;20968;42.696;23.360;2022-12-18T04:04:49;96205.84;;;5.78;77.90
34742;BME280;20968;42.696;23.360;2022-12-18T04:07:16;96214.09;;;5.75;78.15
34742;BME280;20968;42.696;23.360;2022-12-18T04:09:42;96216.72;;;5.82;78.18
34742;BME280;20968;42.696;23.360;2022-12-18T04:12:08;96224.56;;;5.80;77.77
34742;BME280;20968;42.696;23.360;2022-12-18T04:14:33;96220.56;;;5.84;77.68
34742;BME280;20968;42.696;23.360;2022-12-18T04:17:00;96225.91;;;5.91;77.67
34742;BME280;20968;42.696;23.360;2022-12-18T04:19:26;96220.16;;;5.86;76.86
34742;BME280;20968;42.696;23.360;2022-12-18T04:21:51;96233.59;;;5.96;77.30
34742;BME280;20968;42.696;23.360;2022-12-18T04:24:16;96240.75;;;5.90;76.80
34742;BME280;20968;42.696;23.360;2022-12-18T04:26:42;96256.22;;;5.77;77.09
34742;BME280;20968;42.696;23.360;2022-12-18T04:29:07;96246.81;;;5.78;77.07
34742;BME280;20968;42.696;23.360;2022-12-18T04:31:32;96239.47;;;5.75;77.21
34742;BME280;20968;42.696;23.360;2022-12-18T04:33:58;96247.91;;;5.84;77.30
34742;BME280;20968;42.696;23.360;2022-12-18T04:36:23;96248.31;;;5.83;76.37
34742;BME280;20968;42.696;23.360;2022-12-18T04:38:48;96243.97;;;5.85;76.09
34742;BME280;20968;42.696;23.360;2022-12-18T04:41:13;96251.53;;;5.78;76.20
34742;BME280;20968;42.696;23.360;2022-12-18T04:43:39;96253.78;;;5.83;76.22
34742;BME280;20968;42.696;23.360;2022-12-18T04:46:04;96256.94;;;5.81;75.53
34742;BME280;20968;42.696;23.360;2022-12-18T04:48:30;96263.00;;;5.69;75.67
34742;BME280;20968;42.696;23.360;2022-12-18T04:50:55;96272.47;;;5.65;75.04
34742;BME280;20968;42.696;23.360;2022-12-18T04:53:20;96270.63;;;5.58;75.41
34742;BME280;20968;42.696;23.360;2022-12-18T04:55:46;96277.25;;;5.57;75.70
34742;BME280;20968;42.696;23.360;2022-12-18T04:58:11;96282.31;;;5.59;75.26
34742;BME280;20968;42.696;23.360;2022-12-18T05:00:36;96283.66;;;5.70;75.31
34742;BME280;20968;42.696;23.360;2022-12-18T05:03:02;96285.31;;;5.64;74.67
34742;BME280;20968;42.696;23.360;2022-12-18T05:05:27;96286.88;;;5.65;74.80
34742;BME280;20968;42.696;23.360;2022-12-18T05:07:52;96294.63;;;5.67;74.41
34742;BME280;20968;42.696;23.360;2022-12-18T05:10:18;96285.47;;;5.57;74.49
34742;BME280;20968;42.696;23.360;2022-12-18T05:12:43;96284.91;;;5.46;74.81
34742;BME280;20968;42.696;23.360;2022-12-18T05:15:26;96298.41;;;5.53;74.73
34742;BME280;20968;42.696;23.360;2022-12-18T05:17:51;96292.09;;;5.56;74.80
34742;BME280;20968;42.696;23.360;2022-12-18T05:20:16;96303.31;;;5.62;74.77
34742;BME280;20968;42.696;23.360;2022-12-18T05:22:43;96312.78;;;5.57;74.45
34742;BME280;20968;42.696;23.360;2022-12-18T05:25:08;96317.41;;;5.60;74.96
34742;BME280;20968;42.696;23.360;2022-12-18T05:27:33;96314.25;;;5.62;74.51
34742;BME280;20968;42.696;23.360;2022-12-18T05:29:59;96318.97;;;5.61;74.63
34742;BME280;20968;42.696;23.360;2022-12-18T05:32:24;96322.16;;;5.56;74.58
34742;BME280;20968;42.696;23.360;2022-12-18T05:34:49;96323.53;;;5.45;75.03
34742;BME280;20968;42.696;23.360;2022-12-18T05:37:14;96326.00;;;5.36;75.08
34742;BME280;20968;42.696;23.360;2022-12-18T05:39:40;96325.69;;;5.34;74.97
34742;BME280;20968;42.696;23.360;2022-12-18T05:42:05;96334.22;;;5.36;75.05
34742;BME280;20968;42.696;23.360;2022-12-18T05:44:30;96342.13;;;5.31;75.10
34742;BME280;20968;42.696;23.360;2022-12-18T05:46:55;96341.22;;;5.37;74.35
34742;BME280;20968;42.696;23.360;2022-12-18T05:49:21;96341.63;;;5.36;74.35
34742;BME280;20968;42.696;23.360;2022-12-18T05:51:46;96340.63;;;5.26;74.24
34742;BME280;20968;42.696;23.360;2022-12-18T05:54:11;96344.84;;;5.31;73.43
34742;BME280;20968;42.696;23.360;2022-12-18T05:56:36;96333.63;;;5.25;73.80
34742;BME280;20968;42.696;23.360;2022-12-18T05:59:02;96341.03;;;5.25;74.39
34742;BME280;20968;42.696;23.360;2022-12-18T06:01:27;96346.28;;;5.16;73.88
34742;BME280;20968;42.696;23.360;2022-12-18T06:03:52;96358.00;;;5.13;74.21
34742;BME280;20968;42.696;23.360;2022-12-18T06:06:19;96357.63;;;5.11;74.00
34742;BME280;20968;42.696;23.360;2022-12-18T06:08:45;96353.03;;;5.08;74.60
34742;BME280;20968;42.696;23.360;2022-12-18T06:11:11;96355.34;;;5.09;74.02
34742;BME280;20968;42.696;23.360;2022-12-18T06:13:36;96356.88;;;5.10;74.63
34742;BME280;20968;42.696;23.360;2022-12-18T06:16:03;96357.84;;;5.23;73.96
34742;BME280;20968;42.696;23.360;2022-12-18T06:18:28;96364.53;;;5.19;73.84
34742;BME280;20968;42.696;23.360;2022-12-18T06:20:57;96364.09;;;5.24;73.77
34742;BME280;20968;42.696;23.360;2022-12-18T06:23:22;96381.16;;;5.28;73.48
34742;BME280;20968;42.696;23.360;2022-12-18T06:25:48;96379.31;;;5.21;73.32
34742;BME280;20968;42.696;23.360;2022-12-18T06:28:13;96382.78;;;5.25;73.74
34742;BME280;20968;42.696;23.360;2022-12-18T06:30:38;96389.72;;;5.30;73.79
34742;BME280;20968;42.696;23.360;2022-12-18T06:33:04;96394.00;;;5.31;73.51
34742;BME280;20968;42.696;23.360;2022-12-18T06:35:29;96394.59;;;5.41;73.64
34742;BME280;20968;42.696;23.360;2022-12-18T06:37:54;96389.91;;;5.42;72.71
34742;BME280;20968;42.696;23.360;2022-12-18T06:40:19;96393.94;;;5.34;72.18
34742;BME280;20968;42.696;23.360;2022-12-18T06:42:45;96405.09;;;5.43;72.44
34742;BME280;20968;42.696;23.360;2022-12-18T06:45:10;96400.16;;;5.35;72.49
34742;BME280;20968;42.696;23.360;2022-12-18T06:47:36;96402.47;;;5.36;72.27
34742;BME280;20968;42.696;23.360;2022-12-18T06:50:02;96405.19;;;5.36;72.39
34742;BME280;20968;42.696;23.360;2022-12-18T06:52:27;96409.03;;;5.42;72.43
34742;BME280;20968;42.696;23.360;2022-12-18T06:54:52;96414.63;;;5.32;71.71
34742;BME280;20968;42.696;23.360;2022-12-18T06:57:17;96410.72;;;5.33;71.59
34742;BME280;20968;42.696;23.360;2022-12-18T06:59:43;96420.06;;;5.35;71.24
34742;BME280;20968;42.696;23.360;2022-12-18T07:02:10;96426.22;;;5.39;71.42
34742;BME280;20968;42.696;23.360;2022-12-18T07:04:35;96429.09;;;5.55;72.34
34742;BME280;20968;42.696;23.360;2022-12-18T07:07:01;96423.66;;;5.78;71.81
34742;BME280;20968;42.696;23.360;2022-12-18T07:09:26;96429.34;;;6.10;70.59
34742;BME280;20968;42.696;23.360;2022-12-18T07:11:51;96428.19;;;6.30;70.25
34742;BME280;20968;42.696;23.360;2022-12-18T07:14:17;96435.81;;;6.19;68.45
34742;BME280;20968;42.696;23.360;2022-12-18T07:16:42;96434.19;;;6.21;68.67
34742;BME280;20968;42.696;23.360;2022-12-18T07:19:07;96436.56;;;6.19;70.60
34742;BME280;20968;42.696;23.360;2022-12-18T07:21:32;96443.00;;;6.52;68.40
34742;BME280;20968;42.696;23.360;2022-12-18T07:23:58;96436.03;;;6.47;69.56
34742;BME280;20968;42.696;23.360;2022-12-18T07:26:23;96442.56;;;6.34;67.67
34742;BME280;20968;42.696;23.360;2022-12-18T07:28:48;96441.91;;;6.26;68.10
34742;BME280;20968;42.696;23.360;2022-12-18T07:31:15;96435.25;;;6.27;70.06
34742;BME280;20968;42.696;23.360;2022-12-18T07:33:41;96447.38;;;6.46;68.10
34742;BME280;20968;42.696;23.360;2022-12-18T07:36:07;96448.94;;;6.66;67.73
34742;BME280;20968;42.696;23.360;2022-12-18T07:38:33;96450.00;;;6.53;68.16
34742;BME280;20968;42.696;23.360;2022-12-18T07:41:02;96451.91;;;6.56;68.10
34742;BME280;20968;42.696;23.360;2022-12-18T07:43:28;96457.28;;;6.40;67.33
34742;BME280;20968;42.696;23.360;2022-12-18T07:45:54;96454.38;;;6.27;67.99
34742;BME280;20968;42.696;23.360;2022-12-18T07:48:19;96465.19;;;6.34;68.02
34742;BME280;20968;42.696;23.360;2022-12-18T07:50:44;96453.28;;;6.44;69.06
34742;BME280;20968;42.696;23.360;2022-12-18T07:53:10;96461.94;;;6.62;68.98
34742;BME280;20968;42.696;23.360;2022-12-18T07:55:35;96462.47;;;6.54;67.40
34742;BME280;20968;42.696;23.360;2022-12-18T07:58:01;96465.44;;;6.63;67.62
34742;BME280;20968;42.696;23.360;2022-12-18T08:00:27;96471.75;;;6.79;69.12
34742;BME280;20968;42.696;23.360;2022-12-18T08:02:52;96473.41;;;6.93;67.29
34742;BME280;20968;42.696;23.360;2022-12-18T08:05:18;96481.84;;;7.01;66.19
34742;BME280;20968;42.696;23.360;2022-12-18T08:07:43;96487.97;;;6.70;67.38
34742;BME280;20968;42.696;23.360;2022-12-18T08:10:09;96490.78;;;6.67;68.03
34742;BME280;20968;42.696;23.360;2022-12-18T08:12:34;96494.63;;;6.50;68.46
34742;BME280;20968;42.696;23.360;2022-12-18T08:14:59;96493.78;;;6.53;68.18
34742;BME280;20968;42.696;23.360;2022-12-18T08:17:24;96492.94;;;6.56;68.64
34742;BME280;20968;42.696;23.360;2022-12-18T08:19:50;96507.41;;;6.76;68.61
34742;BME280;20968;42.696;23.360;2022-12-18T08:22:15;96516.88;;;6.71;67.83
34742;BME280;20968;42.696;23.360;2022-12-18T08:24:40;96511.28;;;6.78;68.20
34742;BME280;20968;42.696;23.360;2022-12-18T08:27:05;96509.84;;;6.70;68.44
34742;BME280;20968;42.696;23.360;2022-12-18T08:29:31;96511.34;;;6.94;67.60
34742;BME280;20968;42.696;23.360;2022-12-18T08:31:57;96520.81;;;7.09;65.64
34742;BME280;20968;42.696;23.360;2022-12-18T08:34:22;96520.16;;;6.82;66.08
34742;BME280;20968;42.696;23.360;2022-12-18T08:36:47;96525.47;;;6.50;67.30
34742;BME280;20968;42.696;23.360;2022-12-18T08:39:13;96522.28;;;6.32;67.12
34742;BME280;20968;42.696;23.360;2022-12-18T08:41:38;96521.25;;;6.00;68.24
34742;BME280;20968;42.696;23.360;2022-12-18T08:44:03;96526.97;;;5.86;68.57
34742;BME280;20968;42.696;23.360;2022-12-18T08:46:47;96527.94;;;5.73;69.02
34742;BME280;20968;42.696;23.360;2022-12-18T08:49:12;96525.34;;;5.62;68.86
34742;BME280;20968;42.696;23.360;2022-12-18T08:51:38;96535.59;;;5.55;68.72
34742;BME280;20968;42.696;23.360;2022-12-18T08:54:03;96533.91;;;5.64;68.63
34742;BME280;20968;42.696;23.360;2022-12-18T08:56:29;96532.25;;;5.70;69.16
34742;BME280;20968;42.696;23.360;2022-12-18T08:58:55;96528.84;;;5.63;68.57
34742;BME280;20968;42.696;23.360;2022-12-18T09:01:20;96529.63;;;5.63;69.53
34742;BME280;20968;42.696;23.360;2022-12-18T09:03:46;96514.88;;;5.57;68.82
34742;BME280;20968;42.696;23.360;2022-12-18T09:06:13;96526.78;;;5.44;68.89
34742;BME280;20968;42.696;23.360;2022-12-18T09:08:39;96529.13;;;5.45;68.99
34742;BME280;20968;42.696;23.360;2022-12-18T09:11:09;96523.72;;;5.42;68.53
34742;BME280;20968;42.696;23.360;2022-12-18T09:13:35;96531.59;;;5.37;69.05
34742;BME280;20968;42.696;23.360;2022-12-18T09:16:00;96526.94;;;5.34;68.60
34742;BME280;20968;42.696;23.360;2022-12-18T09:18:28;96525.13;;;5.24;68.71
34742;BME280;20968;42.696;23.360;2022-12-18T09:20:53;96528.69;;;5.21;69.11
34742;BME280;20968;42.696;23.360;2022-12-18T09:23:18;96523.88;;;5.28;68.49
34742;BME280;20968;42.696;23.360;2022-12-18T09:25:43;96524.53;;;5.39;68.78
34742;BME280;20968;42.696;23.360;2022-12-18T09:28:10;96527.16;;;5.46;68.00
34742;BME280;20968;42.696;23.360;2022-12-18T09:30:38;96528.34;;;5.45;67.99
34742;BME280;20968;42.696;23.360;2022-12-18T09:33:03;96525.22;;;5.46;67.55
34742;BME280;20968;42.696;23.360;2022-12-18T09:35:28;96548.94;;;5.49;67.33
34742;BME280;20968;42.696;23.360;2022-12-18T09:37:54;96524.47;;;5.42;67.41
34742;BME280;20968;42.696;23.360;2022-12-18T09:40:21;96526.84;;;5.40;67.52
34742;BME280;20968;42.696;23.360;2022-12-18T09:42:48;96531.47;;;5.43;67.77
34742;BME280;20968;42.696;23.360;2022-12-18T09:45:17;96533.03;;;5.44;67.35
34742;BME280;20968;42.696;23.360;2022-12-18T09:47:42;96526.69;;;5.51;67.19
34742;BME280;20968;42.696;23.360;2022-12-18T09:50:27;96529.72;;;5.56;67.08
34742;BME280;20968;42.696;23.360;2022-12-18T09:52:56;96527.31;;;5.62;66.79
34742;BME280;20968;42.696;23.360;2022-12-18T09:57:52;96523.28;;;5.70;66.74
34742;BME280;20968;42.696;23.360;2022-12-18T10:00:22;96529.06;;;5.75;67.01
34742;BME280;20968;42.696;23.360;2022-12-18T10:02:48;96526.63;;;5.84;66.82
34742;BME280;20968;42.696;23.360;2022-12-18T10:05:20;96529.69;;;5.86;65.28
34742;BME280;20968;42.696;23.360;2022-12-18T10:13:15;96534.50;;;5.79;65.43
34742;BME280;20968;42.696;23.360;2022-12-18T10:18:19;96520.78;;;5.82;65.70
34742;BME280;20968;42.696;23.360;2022-12-18T10:20:49;96525.81;;;5.84;65.74
34742;BME280;20968;42.696;23.360;2022-12-18T10:23:28;96539.44;;;5.87;65.56
34742;BME280;20968;42.696;23.360;2022-12-18T10:26:02;96536.69;;;5.87;65.72
34742;BME280;20968;42.696;23.360;2022-12-18T10:28:29;96537.94;;;5.83;65.59
34742;BME280;20968;42.696;23.360;2022-12-18T10:30:55;96530.78;;;6.15;67.96
34742;BME280;20968;42.696;23.360;2022-12-18T10:33:21;96539.22;;;6.47;66.84
34742;BME280;20968;42.696;23.360;2022-12-18T10:35:48;96530.28;;;6.66;66.16
34742;BME280;20968;42.696;23.360;2022-12-18T10:43:37;96519.06;;;6.99;66.56
34742;BME280;20968;42.696;23.360;2022-12-18T10:48:28;96525.34;;;7.35;63.16
34742;BME280;20968;42.696;23.360;2022-12-18T10:50:55;96528.03;;;7.54;63.15
34742;BME280;20968;42.696;23.360;2022-12-18T10:53:24;96520.56;;;7.74;63.92
34742;BME280;20968;42.696;23.360;2022-12-18T10:55:50;96522.19;;;8.03;63.09
34742;BME280;20968;42.696;23.360;2022-12-18T10:58:27;96521.16;;;7.81;59.51
34742;BME280;20968;42.696;23.360;2022-12-18T11:14:18;96516.50;;;7.27;61.47
34742;BME280;20968;42.696;23.360;2022-12-18T11:16:46;96527.56;;;7.04;62.09
34742;BME280;20968;42.696;23.360;2022-12-18T11:19:30;96525.72;;;6.79;62.68
34742;BME280;20968;42.696;23.360;2022-12-18T11:21:57;96537.84;;;6.78;62.49
34742;BME280;20968;42.696;23.360;2022-12-18T11:24:34;96523.88;;;6.72;63.18
34742;BME280;20968;42.696;23.360;2022-12-18T11:27:02;96527.44;;;6.50;63.04
34742;BME280;20968;42.696;23.360;2022-12-18T11:29:35;96525.13;;;6.48;63.17
34742;BME280;20968;42.696;23.360;2022-12-18T11:32:27;96525.53;;;6.47;63.62
34742;BME280;20968;42.696;23.360;2022-12-18T11:35:13;96525.47;;;6.50;63.22
34742;BME280;20968;42.696;23.360;2022-12-18T11:37:59;96514.25;;;6.45;63.48
34742;BME280;20968;42.696;23.360;2022-12-18T11:40:35;96516.50;;;6.50;63.31
34742;BME280;20968;42.696;23.360;2022-12-18T11:46:24;96536.22;;;6.61;63.17
34742;BME280;20968;42.696;23.360;2022-12-18T11:49:03;96536.75;;;6.52;63.15
34742;BME280;20968;42.696;23.360;2022-12-18T11:51:37;96522.84;;;6.43;63.70
34742;BME280;20968;42.696;23.360;2022-12-18T11:54:14;96525.19;;;6.45;63.33
34742;BME280;20968;42.696;23.360;2022-12-18T12:07:49;96519.81;;;6.38;63.57
34742;BME280;20968;42.696;23.360;2022-12-18T12:15:56;96532.31;;;6.39;63.51
34742;BME280;20968;42.696;23.360;2022-12-18T12:21:04;96522.22;;;6.36;63.66
34742;BME280;20968;42.696;23.360;2022-12-18T12:29:19;96526.28;;;6.28;63.96
34742;BME280;20968;42.696;23.360;2022-12-18T12:32:38;96532.50;;;6.28;63.67
34742;BME280;20968;42.696;23.360;2022-12-18T12:40:54;96541.53;;;6.48;63.63
34742;BME280;20968;42.696;23.360;2022-12-18T12:43:27;96538.50;;;6.43;63.57
34742;BME280;20968;42.696;23.360;2022-12-18T12:46:04;96528.38;;;6.40;63.65
34742;BME280;20968;42.696;23.360;2022-12-18T12:48:35;96534.28;;;6.38;63.65
34742;BME280;20968;42.696;23.360;2022-12-18T12:51:08;96534.66;;;6.40;63.35
34742;BME280;20968;42.696;23.360;2022-12-18T12:53:36;96536.84;;;6.49;63.53
34742;BME280;20968;42.696;23.360;2022-12-18T12:56:04;96549.50;;;6.39;64.10
34742;BME280;20968;42.696;23.360;2022-12-18T12:58:57;96546.22;;;6.48;64.22
34742;BME280;20968;42.696;23.360;2022-12-18T13:01:52;96547.41;;;6.47;64.46
34742;BME280;20968;42.696;23.360;2022-12-18T13:07:05;96553.31;;;6.45;64.53
34742;BME280;20968;42.696;23.360;2022-12-18T13:13:14;96564.31;;;6.42;63.15
34742;BME280;20968;42.696;23.360;2022-12-18T13:16:06;96560.84;;;6.38;62.54
34742;BME280;20968;42.696;23.360;2022-12-18T13:18:32;96567.47;;;6.40;63.19
34742;BME280;20968;42.696;23.360;2022-12-18T13:25:56;96576.25;;;6.28;63.37
34742;BME280;20968;42.696;23.360;2022-12-18T13:28:50;96575.31;;;6.38;63.72
34742;BME280;20968;42.696;23.360;2022-12-18T13:34:29;96576.00;;;6.42;63.44
34742;BME280;20968;42.696;23.360;2022-12-18T13:37:35;96580.28;;;6.43;63.92
34742;BME280;20968;42.696;23.360;2022-12-18T13:39:42;96577.88;;;6.26;64.24
34742;BME280;20968;42.696;23.360;2022-12-18T13:44:38;96573.94;;;6.27;63.86
34742;BME280;20968;42.696;23.360;2022-12-18T13:47:25;96584.09;;;6.26;63.88
34742;BME280;20968;42.696;23.360;2022-12-18T13:49:51;96591.53;;;6.26;64.17
34742;BME280;20968;42.696;23.360;2022-12-18T13:52:22;96600.47;;;6.30;64.42
34742;BME280;20968;42.696;23.360;2022-12-18T13:54:55;96600.56;;;6.23;64.03
34742;BME280;20968;42.696;23.360;2022-12-18T13:57:33;96601.22;;;6.30;64.84
34742;BME280;20968;42.696;23.360;2022-12-18T14:00:25;96602.66;;;6.38;64.42
34742;BME280;20968;42.696;23.360;2022-12-18T14:02:51;96602.72;;;6.35;64.29
34742;BME280;20968;42.696;23.360;2022-12-18T14:05:23;96611.88;;;6.25;63.44
34742;BME280;20968;42.696;23.360;2022-12-18T14:07:49;96616.03;;;6.33;62.92
34742;BME280;20968;42.696;23.360;2022-12-18T14:10:15;96610.06;;;6.38;63.03
34742;BME280;20968;42.696;23.360;2022-12-18T14:12:45;96609.44;;;6.30;62.27
34742;BME280;20968;42.696;23.360;2022-12-18T14:17:57;96618.06;;;6.29;62.49
34742;BME280;20968;42.696;23.360;2022-12-18T14:20:25;96613.78;;;6.28;62.06
34742;BME280;20968;42.696;23.360;2022-12-18T14:22:52;96619.63;;;6.30;62.21
34742;BME280;20968;42.696;23.360;2022-12-18T14:25:22;96625.41;;;6.32;62.88
34742;BME280;20968;42.696;23.360;2022-12-18T14:27:49;96622.19;;;6.40;62.43
34742;BME280;20968;42.696;23.360;2022-12-18T14:30:29;96624.97;;;6.37;62.10
34742;BME280;20968;42.696;23.360;2022-12-18T14:35:30;96632.94;;;6.51;65.11
34742;BME280;20968;42.696;23.360;2022-12-18T14:38:18;96629.78;;;6.52;62.43
34742;BME280;20968;42.696;23.360;2022-12-18T14:40:44;96632.31;;;6.40;61.31
34742;BME280;20968;42.696;23.360;2022-12-18T14:43:10;96638.97;;;6.39;61.97
34742;BME280;20968;42.696;23.360;2022-12-18T14:45:45;96624.97;;;6.37;61.69
34742;BME280;20968;42.696;23.360;2022-12-18T14:50:37;96625.03;;;6.33;62.14
34742;BME280;20968;42.696;23.360;2022-12-18T14:53:03;96620.31;;;6.34;60.62
34742;BME280;20968;42.696;23.360;2022-12-18T14:55:28;96620.31;;;6.34;60.80
34742;BME280;20968;42.696;23.360;2022-12-18T14:57:55;96624.34;;;6.26;60.80
34742;BME280;20968;42.696;23.360;2022-12-18T15:00:23;96632.56;;;6.26;61.43
34742;BME280;20968;42.696;23.360;2022-12-18T15:02:54;96626.84;;;6.17;60.29